sensor_id;sensor_type;location;lat;lon;timestamp;pressure;altitude;pressure_sealevel;temperature;humidity
65131;BME280;51709;54.912;8.316;2023-02-13T00:01:01;103661.63;;;6.47;82.39
65131;BME280;51709;54.912;8.316;2023-02-13T00:06:22;103650.41;;;6.43;82.40
65131;BME280;51709;54.912;8.316;2023-02-13T00:11:43;103666.72;;;6.47;82.15
65131;BME280;51709;54.912;8.316;2023-02-13T00:17:04;103662.56;;;6.49;82.10
65131;BME280;51709;54.912;8.316;2023-02-13T00:22:25;103673.69;;;6.51;81.85
65131;BME280;51709;54.912;8.316;2023-02-13T00:27:45;103664.06;;;6.44;81.95
65131;BME280;51709;54.912;8.316;2023-02-13T00:33:07;103664.91;;;6.44;82.05
65131;BME280;51709;54.912;8.316;2023-02-13T00:38:28;103653.16;;;6.48;81.92
65131;BME280;51709;54.912;8.316;2023-02-13T00:43:49;103657.44;;;6.49;81.71
65131;BME280;51709;54.912;8.316;2023-02-13T00:49:10;103652.31;;;6.47;81.67
65131;BME280;51709;54.912;8.316;2023-02-13T00:54:30;103654.09;;;6.50;81.61
65131;BME280;51709;54.912;8.316;2023-02-13T00:59:51;103651.50;;;6.48;81.62
65131;BME280;51709;54.912;8.316;2023-02-13T01:05:12;103651.16;;;6.41;81.50
65131;BME280;51709;54.912;8.316;2023-02-13T01:10:33;103644.31;;;6.40;81.48
65131;BME280;51709;54.912;8.316;2023-02-13T01:15:54;103647.81;;;6.42;81.52
65131;BME280;51709;54.912;8.316;2023-02-13T01:21:20;103651.22;;;6.42;81.39
65131;BME280;51709;54.912;8.316;2023-02-13T01:26:41;103649.59;;;6.44;81.28
65131;BME280;51709;54.912;8.316;2023-02-13T01:32:02;103644.59;;;6.46;81.29
65131;BME280;51709;54.912;8.316;2023-02-13T01:37:24;103654.56;;;6.41;81.53
65131;BME280;51709;54.912;8.316;2023-02-13T01:42:45;103636.00;;;6.44;81.35
65131;BME280;51709;54.912;8.316;2023-02-13T01:48:10;103633.97;;;6.37;81.33
65131;BME280;51709;54.912;8.316;2023-02-13T01:53:39;103625.53;;;6.38;81.33
65131;BME280;51709;54.912;8.316;2023-02-13T01:59:12;103622.91;;;6.36;81.21
65131;BME280;51709;54.912;8.316;2023-02-13T02:04:37;103615.84;;;6.29;81.19
65131;BME280;51709;54.912;8.316;2023-02-13T02:10:12;103613.06;;;6.24;81.28
65131;BME280;51709;54.912;8.316;2023-02-13T02:15:34;103624.81;;;6.21;81.42
65131;BME280;51709;54.912;8.316;2023-02-13T02:32:41;103627.13;;;6.14;81.35
65131;BME280;51709;54.912;8.316;2023-02-13T02:43:38;103623.88;;;6.19;81.16
65131;BME280;51709;54.912;8.316;2023-02-13T02:49:05;103631.00;;;6.26;81.14
65131;BME280;51709;54.912;8.316;2023-02-13T02:55:06;103630.81;;;6.21;81.35
65131;BME280;51709;54.912;8.316;2023-02-13T03:00:43;103630.31;;;6.30;81.15
65131;BME280;51709;54.912;8.316;2023-02-13T03:06:28;103620.59;;;6.21;81.33
65131;BME280;51709;54.912;8.316;2023-02-13T03:11:53;103623.34;;;6.26;81.25
65131;BME280;51709;54.912;8.316;2023-02-13T03:17:33;103625.00;;;6.25;81.26
65131;BME280;51709;54.912;8.316;2023-02-13T03:23:15;103635.16;;;6.24;81.26
65131;BME280;51709;54.912;8.316;2023-02-13T03:28:50;103622.34;;;6.22;81.19
65131;BME280;51709;54.912;8.316;2023-02-13T03:34:39;103624.09;;;6.23;81.03
65131;BME280;51709;54.912;8.316;2023-02-13T03:40:35;103626.56;;;6.22;81.17
65131;BME280;51709;54.912;8.316;2023-02-13T03:46:20;103624.34;;;6.29;80.83
65131;BME280;51709;54.912;8.316;2023-02-13T03:51:55;103630.09;;;6.25;81.19
65131;BME280;51709;54.912;8.316;2023-02-13T03:57:19;103625.56;;;6.18;81.38
65131;BME280;51709;54.912;8.316;2023-02-13T04:03:28;103624.69;;;6.17;81.36
65131;BME280;51709;54.912;8.316;2023-02-13T04:08:50;103633.56;;;6.26;81.13
65131;BME280;51709;54.912;8.316;2023-02-13T04:14:35;103642.94;;;6.27;81.17
65131;BME280;51709;54.912;8.316;2023-02-13T04:19:58;103643.75;;;6.26;81.06
65131;BME280;51709;54.912;8.316;2023-02-13T04:25:19;103644.69;;;6.28;80.99
65131;BME280;51709;54.912;8.316;2023-02-13T04:30:40;103637.91;;;6.28;81.03
65131;BME280;51709;54.912;8.316;2023-02-13T04:36:00;103647.28;;;6.29;80.89
65131;BME280;51709;54.912;8.316;2023-02-13T04:41:21;103648.28;;;6.33;80.75
65131;BME280;51709;54.912;8.316;2023-02-13T04:46:42;103636.72;;;6.41;80.67
65131;BME280;51709;54.912;8.316;2023-02-13T04:52:03;103633.56;;;6.47;80.31
65131;BME280;51709;54.912;8.316;2023-02-13T04:57:24;103631.63;;;6.41;80.35
65131;BME280;51709;54.912;8.316;2023-02-13T05:02:45;103643.66;;;6.44;80.47
65131;BME280;51709;54.912;8.316;2023-02-13T05:08:06;103641.63;;;6.37;80.57
65131;BME280;51709;54.912;8.316;2023-02-13T05:13:27;103635.63;;;6.35;80.54
65131;BME280;51709;54.912;8.316;2023-02-13T05:18:48;103638.41;;;6.41;80.53
65131;BME280;51709;54.912;8.316;2023-02-13T05:24:09;103643.47;;;6.39;80.21
65131;BME280;51709;54.912;8.316;2023-02-13T05:29:29;103648.75;;;6.44;80.26
65131;BME280;51709;54.912;8.316;2023-02-13T05:34:50;103652.03;;;6.41;80.16
65131;BME280;51709;54.912;8.316;2023-02-13T05:40:11;103656.31;;;6.42;80.21
65131;BME280;51709;54.912;8.316;2023-02-13T05:45:33;103655.53;;;6.43;80.02
65131;BME280;51709;54.912;8.316;2023-02-13T05:50:54;103663.25;;;6.45;80.03
65131;BME280;51709;54.912;8.316;2023-02-13T05:56:15;103658.06;;;6.43;79.88
65131;BME280;51709;54.912;8.316;2023-02-13T06:01:36;103661.25;;;6.38;79.78
65131;BME280;51709;54.912;8.316;2023-02-13T06:06:57;103660.72;;;6.45;79.55
65131;BME280;51709;54.912;8.316;2023-02-13T06:12:18;103660.81;;;6.48;79.44
65131;BME280;51709;54.912;8.316;2023-02-13T06:17:38;103652.44;;;6.51;79.25
65131;BME280;51709;54.912;8.316;2023-02-13T06:22:59;103667.59;;;6.47;79.30
65131;BME280;51709;54.912;8.316;2023-02-13T06:28:20;103660.09;;;6.51;79.23
65131;BME280;51709;54.912;8.316;2023-02-13T06:33:40;103667.38;;;6.62;78.87
65131;BME280;51709;54.912;8.316;2023-02-13T06:39:01;103664.13;;;6.67;78.75
65131;BME280;51709;54.912;8.316;2023-02-13T06:44:23;103661.63;;;6.68;78.69
65131;BME280;51709;54.912;8.316;2023-02-13T06:50:05;103670.81;;;6.63;78.69
65131;BME280;51709;54.912;8.316;2023-02-13T06:55:26;103668.06;;;6.58;78.83
65131;BME280;51709;54.912;8.316;2023-02-13T07:00:47;103678.19;;;6.57;78.84
65131;BME280;51709;54.912;8.316;2023-02-13T07:06:08;103680.69;;;6.55;78.80
65131;BME280;51709;54.912;8.316;2023-02-13T07:11:29;103686.59;;;6.54;78.77
65131;BME280;51709;54.912;8.316;2023-02-13T07:16:50;103682.50;;;6.58;78.66
65131;BME280;51709;54.912;8.316;2023-02-13T07:22:11;103686.84;;;6.60;78.44
65131;BME280;51709;54.912;8.316;2023-02-13T07:27:32;103688.66;;;6.63;78.41
65131;BME280;51709;54.912;8.316;2023-02-13T07:32:52;103691.22;;;6.63;78.46
65131;BME280;51709;54.912;8.316;2023-02-13T07:38:13;103691.31;;;6.66;78.33
65131;BME280;51709;54.912;8.316;2023-02-13T07:43:34;103702.34;;;6.65;78.27
65131;BME280;51709;54.912;8.316;2023-02-13T07:48:55;103707.44;;;6.65;78.18
65131;BME280;51709;54.912;8.316;2023-02-13T07:54:15;103706.59;;;6.65;78.08
65131;BME280;51709;54.912;8.316;2023-02-13T07:59:36;103714.91;;;6.60;78.18
65131;BME280;51709;54.912;8.316;2023-02-13T08:04:56;103706.72;;;6.68;78.04
65131;BME280;51709;54.912;8.316;2023-02-13T08:10:17;103711.22;;;6.73;77.74
65131;BME280;51709;54.912;8.316;2023-02-13T08:15:57;103706.28;;;6.78;77.56
65131;BME280;51709;54.912;8.316;2023-02-13T08:21:18;103713.06;;;6.77;77.65
65131;BME280;51709;54.912;8.316;2023-02-13T08:26:40;103707.47;;;6.86;77.30
65131;BME280;51709;54.912;8.316;2023-02-13T08:32:00;103709.56;;;6.97;77.22
65131;BME280;51709;54.912;8.316;2023-02-13T08:37:21;103710.66;;;7.02;77.09
65131;BME280;51709;54.912;8.316;2023-02-13T08:42:42;103710.06;;;7.09;76.69
65131;BME280;51709;54.912;8.316;2023-02-13T08:48:03;103711.06;;;7.13;76.78
65131;BME280;51709;54.912;8.316;2023-02-13T08:53:24;103709.31;;;7.12;76.67
65131;BME280;51709;54.912;8.316;2023-02-13T08:58:48;103708.59;;;7.14;76.41
65131;BME280;51709;54.912;8.316;2023-02-13T09:04:09;103715.63;;;7.20;76.36
65131;BME280;51709;54.912;8.316;2023-02-13T09:09:29;103707.88;;;7.18;76.32
65131;BME280;51709;54.912;8.316;2023-02-13T09:14:50;103714.06;;;7.23;76.24
65131;BME280;51709;54.912;8.316;2023-02-13T09:20:12;103727.00;;;7.28;76.24
65131;BME280;51709;54.912;8.316;2023-02-13T09:25:33;103727.19;;;7.33;75.90
65131;BME280;51709;54.912;8.316;2023-02-13T09:30:54;103733.34;;;7.38;75.85
65131;BME280;51709;54.912;8.316;2023-02-13T09:36:21;103730.72;;;7.36;75.88
65131;BME280;51709;54.912;8.316;2023-02-13T09:41:42;103732.59;;;7.40;75.68
65131;BME280;51709;54.912;8.316;2023-02-13T09:47:26;103737.88;;;7.45;75.79
65131;BME280;51709;54.912;8.316;2023-02-13T09:52:51;103745.22;;;7.59;75.42
65131;BME280;51709;54.912;8.316;2023-02-13T09:58:19;103737.38;;;7.54;75.23
65131;BME280;51709;54.912;8.316;2023-02-13T10:03:45;103732.22;;;7.52;75.40
65131;BME280;51709;54.912;8.316;2023-02-13T10:09:26;103725.38;;;7.51;75.34
65131;BME280;51709;54.912;8.316;2023-02-13T10:20:48;103729.66;;;7.52;75.25
65131;BME280;51709;54.912;8.316;2023-02-13T10:26:38;103739.75;;;7.49;75.06
65131;BME280;51709;54.912;8.316;2023-02-13T10:32:07;103747.28;;;7.46;75.14
65131;BME280;51709;54.912;8.316;2023-02-13T10:37:29;103735.84;;;7.59;74.71
65131;BME280;51709;54.912;8.316;2023-02-13T10:43:07;103732.47;;;7.60;74.73
65131;BME280;51709;54.912;8.316;2023-02-13T10:48:40;103729.84;;;7.57;74.95
65131;BME280;51709;54.912;8.316;2023-02-13T10:54:33;103739.47;;;7.64;74.66
65131;BME280;51709;54.912;8.316;2023-02-13T11:00:26;103741.50;;;7.50;74.89
65131;BME280;51709;54.912;8.316;2023-02-13T11:05:51;103738.13;;;7.51;74.88
65131;BME280;51709;54.912;8.316;2023-02-13T11:11:38;103728.59;;;7.47;74.94
65131;BME280;51709;54.912;8.316;2023-02-13T11:17:06;103730.34;;;7.48;74.63
65131;BME280;51709;54.912;8.316;2023-02-13T11:22:36;103720.25;;;7.51;74.64
65131;BME280;51709;54.912;8.316;2023-02-13T11:28:12;103729.41;;;7.46;74.71
65131;BME280;51709;54.912;8.316;2023-02-13T11:33:35;103729.47;;;7.48;74.41
65131;BME280;51709;54.912;8.316;2023-02-13T11:39:05;103718.22;;;7.43;74.61
65131;BME280;51709;54.912;8.316;2023-02-13T11:44:28;103725.06;;;7.44;74.35
65131;BME280;51709;54.912;8.316;2023-02-13T11:49:50;103721.16;;;7.53;74.29
65131;BME280;51709;54.912;8.316;2023-02-13T11:56:00;103710.25;;;7.58;74.21
65131;BME280;51709;54.912;8.316;2023-02-13T12:06:58;103699.38;;;7.63;73.76
65131;BME280;51709;54.912;8.316;2023-02-13T12:12:28;103694.28;;;7.63;73.72
65131;BME280;51709;54.912;8.316;2023-02-13T12:55:37;103676.72;;;7.50;73.58
65131;BME280;51709;54.912;8.316;2023-02-13T13:01:18;103680.00;;;7.46;73.96
65131;BME280;51709;54.912;8.316;2023-02-13T13:17:58;103670.84;;;7.30;74.10
65131;BME280;51709;54.912;8.316;2023-02-13T13:28:57;103660.44;;;7.02;74.41
65131;BME280;51709;54.912;8.316;2023-02-13T13:34:22;103671.22;;;6.95;74.68
65131;BME280;51709;54.912;8.316;2023-02-13T13:40:00;103667.78;;;6.94;74.61
65131;BME280;51709;54.912;8.316;2023-02-13T13:51:12;103662.00;;;6.99;74.31
65131;BME280;51709;54.912;8.316;2023-02-13T14:07:38;103650.31;;;6.83;74.71
65131;BME280;51709;54.912;8.316;2023-02-13T14:13:01;103658.84;;;6.83;74.65
65131;BME280;51709;54.912;8.316;2023-02-13T14:18:27;103663.31;;;6.89;74.58
65131;BME280;51709;54.912;8.316;2023-02-13T14:23:49;103664.75;;;7.03;74.14
65131;BME280;51709;54.912;8.316;2023-02-13T14:29:21;103660.69;;;7.08;74.04
65131;BME280;51709;54.912;8.316;2023-02-13T14:34:51;103669.28;;;7.11;73.99
65131;BME280;51709;54.912;8.316;2023-02-13T14:40:26;103678.00;;;7.16;73.81
65131;BME280;51709;54.912;8.316;2023-02-13T14:45:55;103675.69;;;7.22;73.74
65131;BME280;51709;54.912;8.316;2023-02-13T14:51:21;103668.75;;;7.19;73.63
65131;BME280;51709;54.912;8.316;2023-02-13T14:56:49;103663.81;;;7.24;73.61
65131;BME280;51709;54.912;8.316;2023-02-13T15:02:29;103660.19;;;7.17;73.79
65131;BME280;51709;54.912;8.316;2023-02-13T15:08:15;103661.69;;;7.12;73.90
65131;BME280;51709;54.912;8.316;2023-02-13T15:13:35;103660.13;;;7.16;73.54
65131;BME280;51709;54.912;8.316;2023-02-13T15:19:02;103662.22;;;7.26;73.44
65131;BME280;51709;54.912;8.316;2023-02-13T15:24:23;103668.38;;;7.31;73.23
65131;BME280;51709;54.912;8.316;2023-02-13T15:30:00;103663.09;;;7.27;73.37
65131;BME280;51709;54.912;8.316;2023-02-13T15:35:25;103657.06;;;7.24;73.24
65131;BME280;51709;54.912;8.316;2023-02-13T15:40:49;103650.53;;;7.10;73.41
65131;BME280;51709;54.912;8.316;2023-02-13T15:46:26;103647.16;;;7.11;73.44
65131;BME280;51709;54.912;8.316;2023-02-13T15:51:48;103641.47;;;7.18;73.05
65131;BME280;51709;54.912;8.316;2023-02-13T15:57:10;103644.38;;;7.05;73.19
65131;BME280;51709;54.912;8.316;2023-02-13T16:02:40;103638.66;;;6.89;73.29
65131;BME280;51709;54.912;8.316;2023-02-13T16:08:30;103647.72;;;6.81;73.50
65131;BME280;51709;54.912;8.316;2023-02-13T16:13:57;103643.41;;;6.80;73.41
65131;BME280;51709;54.912;8.316;2023-02-13T16:19:33;103649.81;;;6.70;73.60
65131;BME280;51709;54.912;8.316;2023-02-13T16:25:04;103642.13;;;6.69;73.50
65131;BME280;51709;54.912;8.316;2023-02-13T16:30:33;103650.56;;;6.68;73.52
65131;BME280;51709;54.912;8.316;2023-02-13T16:35:59;103651.00;;;6.78;73.17
65131;BME280;51709;54.912;8.316;2023-02-13T16:46:52;103641.66;;;6.79;73.08
65131;BME280;51709;54.912;8.316;2023-02-13T16:52:23;103647.59;;;6.78;73.10
65131;BME280;51709;54.912;8.316;2023-02-13T16:57:46;103646.78;;;6.79;72.79
65131;BME280;51709;54.912;8.316;2023-02-13T17:03:08;103651.06;;;6.80;73.06
65131;BME280;51709;54.912;8.316;2023-02-13T17:08:31;103640.88;;;6.80;72.92
65131;BME280;51709;54.912;8.316;2023-02-13T17:13:52;103647.63;;;6.79;72.76
65131;BME280;51709;54.912;8.316;2023-02-13T17:19:13;103648.53;;;6.80;72.94
65131;BME280;51709;54.912;8.316;2023-02-13T17:24:33;103645.25;;;6.84;72.79
65131;BME280;51709;54.912;8.316;2023-02-13T17:29:54;103657.84;;;6.79;73.09
65131;BME280;51709;54.912;8.316;2023-02-13T17:35:15;103650.06;;;6.76;73.26
65131;BME280;51709;54.912;8.316;2023-02-13T17:40:36;103654.69;;;6.64;73.64
65131;BME280;51709;54.912;8.316;2023-02-13T17:45:57;103661.88;;;6.53;73.69
65131;BME280;51709;54.912;8.316;2023-02-13T17:51:20;103658.03;;;6.63;73.57
65131;BME280;51709;54.912;8.316;2023-02-13T17:56:41;103660.56;;;6.84;72.80
65131;BME280;51709;54.912;8.316;2023-02-13T18:02:02;103658.34;;;6.92;72.24
65131;BME280;51709;54.912;8.316;2023-02-13T18:07:23;103652.47;;;6.94;72.19
65131;BME280;51709;54.912;8.316;2023-02-13T18:12:44;103650.69;;;6.92;72.30
65131;BME280;51709;54.912;8.316;2023-02-13T18:18:05;103658.16;;;6.87;72.47
65131;BME280;51709;54.912;8.316;2023-02-13T18:23:26;103652.19;;;6.87;72.42
65131;BME280;51709;54.912;8.316;2023-02-13T18:28:47;103653.84;;;6.86;72.33
65131;BME280;51709;54.912;8.316;2023-02-13T18:34:11;103642.88;;;6.89;72.31
65131;BME280;51709;54.912;8.316;2023-02-13T18:39:32;103640.69;;;6.75;72.47
65131;BME280;51709;54.912;8.316;2023-02-13T18:44:53;103639.47;;;6.67;72.70
65131;BME280;51709;54.912;8.316;2023-02-13T18:50:14;103643.03;;;6.71;72.44
65131;BME280;51709;54.912;8.316;2023-02-13T18:55:34;103640.38;;;6.68;72.57
65131;BME280;51709;54.912;8.316;2023-02-13T19:00:55;103641.97;;;6.66;72.43
65131;BME280;51709;54.912;8.316;2023-02-13T19:06:19;103640.00;;;6.58;72.66
65131;BME280;51709;54.912;8.316;2023-02-13T19:11:40;103652.50;;;6.52;72.98
65131;BME280;51709;54.912;8.316;2023-02-13T19:17:02;103659.91;;;6.67;72.45
65131;BME280;51709;54.912;8.316;2023-02-13T19:22:22;103640.59;;;6.74;72.19
65131;BME280;51709;54.912;8.316;2023-02-13T19:27:43;103647.59;;;6.78;71.98
65131;BME280;51709;54.912;8.316;2023-02-13T19:33:04;103653.00;;;6.65;72.70
65131;BME280;51709;54.912;8.316;2023-02-13T19:38:25;103657.28;;;6.66;72.54
65131;BME280;51709;54.912;8.316;2023-02-13T19:43:46;103648.81;;;6.67;72.34
65131;BME280;51709;54.912;8.316;2023-02-13T19:49:10;103650.22;;;6.58;72.56
65131;BME280;51709;54.912;8.316;2023-02-13T19:54:31;103656.84;;;6.55;72.37
65131;BME280;51709;54.912;8.316;2023-02-13T19:59:53;103649.91;;;6.31;73.05
65131;BME280;51709;54.912;8.316;2023-02-13T20:05:14;103663.97;;;6.42;72.63
65131;BME280;51709;54.912;8.316;2023-02-13T20:10:35;103665.91;;;6.27;73.00
65131;BME280;51709;54.912;8.316;2023-02-13T20:15:56;103657.91;;;6.19;73.16
65131;BME280;51709;54.912;8.316;2023-02-13T20:21:18;103647.63;;;6.37;72.38
65131;BME280;51709;54.912;8.316;2023-02-13T20:26:39;103662.19;;;6.40;72.17
65131;BME280;51709;54.912;8.316;2023-02-13T20:32:00;103659.13;;;6.08;73.21
65131;BME280;51709;54.912;8.316;2023-02-13T20:37:21;103664.03;;;6.03;73.31
65131;BME280;51709;54.912;8.316;2023-02-13T20:42:41;103655.19;;;6.36;72.12
65131;BME280;51709;54.912;8.316;2023-02-13T20:48:02;103658.88;;;6.42;71.83
65131;BME280;51709;54.912;8.316;2023-02-13T20:53:23;103658.81;;;6.41;71.81
65131;BME280;51709;54.912;8.316;2023-02-13T20:58:45;103661.13;;;6.35;71.97
65131;BME280;51709;54.912;8.316;2023-02-13T21:04:07;103659.50;;;6.37;71.96
65131;BME280;51709;54.912;8.316;2023-02-13T21:09:30;103667.34;;;6.41;71.80
65131;BME280;51709;54.912;8.316;2023-02-13T21:14:51;103669.28;;;6.47;71.81
65131;BME280;51709;54.912;8.316;2023-02-13T21:20:14;103666.06;;;6.51;71.67
65131;BME280;51709;54.912;8.316;2023-02-13T21:25:34;103669.41;;;6.50;71.49
65131;BME280;51709;54.912;8.316;2023-02-13T21:30:55;103661.19;;;6.36;71.89
65131;BME280;51709;54.912;8.316;2023-02-13T21:36:16;103664.28;;;6.29;72.09
65131;BME280;51709;54.912;8.316;2023-02-13T21:41:41;103664.06;;;6.24;72.20
65131;BME280;51709;54.912;8.316;2023-02-13T21:47:03;103679.34;;;6.03;72.89
65131;BME280;51709;54.912;8.316;2023-02-13T21:52:26;103673.09;;;5.98;73.15
65131;BME280;51709;54.912;8.316;2023-02-13T21:57:47;103675.91;;;6.22;72.02
65131;BME280;51709;54.912;8.316;2023-02-13T22:03:08;103678.03;;;6.32;71.72
65131;BME280;51709;54.912;8.316;2023-02-13T22:08:28;103677.16;;;6.32;71.87
65131;BME280;51709;54.912;8.316;2023-02-13T22:13:53;103666.91;;;6.30;71.67
65131;BME280;51709;54.912;8.316;2023-02-13T22:19:15;103663.16;;;6.43;71.51
65131;BME280;51709;54.912;8.316;2023-02-13T22:24:36;103669.84;;;6.40;71.48
65131;BME280;51709;54.912;8.316;2023-02-13T22:29:56;103667.94;;;6.36;71.93
65131;BME280;51709;54.912;8.316;2023-02-13T22:35:17;103671.81;;;6.47;71.38
65131;BME280;51709;54.912;8.316;2023-02-13T22:40:37;103689.19;;;6.15;72.34
65131;BME280;51709;54.912;8.316;2023-02-13T22:46:03;103692.78;;;6.00;72.50
65131;BME280;51709;54.912;8.316;2023-02-13T22:51:28;103681.56;;;5.97;72.64
65131;BME280;51709;54.912;8.316;2023-02-13T22:56:48;103686.28;;;6.07;72.42
65131;BME280;51709;54.912;8.316;2023-02-13T23:02:09;103681.78;;;6.01;72.50
65131;BME280;51709;54.912;8.316;2023-02-13T23:07:30;103692.81;;;6.20;71.63
65131;BME280;51709;54.912;8.316;2023-02-13T23:12:52;103682.88;;;6.26;71.35
65131;BME280;51709;54.912;8.316;2023-02-13T23:18:13;103684.63;;;6.27;71.33
65131;BME280;51709;54.912;8.316;2023-02-13T23:23:35;103683.22;;;6.14;71.69
65131;BME280;51709;54.912;8.316;2023-02-13T23:28:55;103682.09;;;6.08;72.03
65131;BME280;51709;54.912;8.316;2023-02-13T23:34:16;103677.44;;;6.19;71.53
65131;BME280;51709;54.912;8.316;2023-02-13T23:39:37;103685.78;;;6.14;71.54
65131;BME280;51709;54.912;8.316;2023-02-13T23:44:58;103668.88;;;5.79;72.42
65131;BME280;51709;54.912;8.316;2023-02-13T23:50:19;103680.00;;;5.61;73.21
65131;BME280;51709;54.912;8.316;2023-02-13T23:55:39;103675.56;;;5.57;72.96
